sensor_id;sensor_type;location;lat;lon;timestamp;temperature;humidity
1429;DHT22;708;51.442;7.016;2022-11-20T00:00:20;0.40;1.00
1429;DHT22;708;51.442;7.016;2022-11-20T00:02:47;0.40;1.00
1429;DHT22;708;51.442;7.016;2022-11-20T00:05:15;0.40;1.00
1429;DHT22;708;51.442;7.016;2022-11-20T00:07:41;0.50;1.00
1429;DHT22;708;51.442;7.016;2022-11-20T00:10:08;0.50;1.00
1429;DHT22;708;51.442;7.016;2022-11-20T00:12:37;0.60;1.00
1429;DHT22;708;51.442;7.016;2022-11-20T00:15:04;0.60;1.00
1429;DHT22;708;51.442;7.016;2022-11-20T00:17:31;0.60;1.00
1429;DHT22;708;51.442;7.016;2022-11-20T00:19:57;0.60;1.00
1429;DHT22;708;51.442;7.016;2022-11-20T00:22:24;0.60;1.00
1429;DHT22;708;51.442;7.016;2022-11-20T00:24:51;0.60;1.00
1429;DHT22;708;51.442;7.016;2022-11-20T00:27:18;0.60;1.00
1429;DHT22;708;51.442;7.016;2022-11-20T00:29:46;0.70;1.00
1429;DHT22;708;51.442;7.016;2022-11-20T00:32:13;0.60;1.00
1429;DHT22;708;51.442;7.016;2022-11-20T00:34:39;0.60;1.00
1429;DHT22;708;51.442;7.016;2022-11-20T00:37:06;0.70;1.00
1429;DHT22;708;51.442;7.016;2022-11-20T00:39:33;0.70;1.00
1429;DHT22;708;51.442;7.016;2022-11-20T00:42:00;0.70;1.00
1429;DHT22;708;51.442;7.016;2022-11-20T00:44:26;0.70;1.00
1429;DHT22;708;51.442;7.016;2022-11-20T00:46:55;0.60;1.00
1429;DHT22;708;51.442;7.016;2022-11-20T00:49:21;0.60;1.00
1429;DHT22;708;51.442;7.016;2022-11-20T00:51:48;0.60;1.00
1429;DHT22;708;51.442;7.016;2022-11-20T00:54:15;0.60;1.00
1429;DHT22;708;51.442;7.016;2022-11-20T00:56:41;0.60;1.00
1429;DHT22;708;51.442;7.016;2022-11-20T00:59:09;0.60;1.00
1429;DHT22;708;51.442;7.016;2022-11-20T01:01:36;0.60;1.00
1429;DHT22;708;51.442;7.016;2022-11-20T01:04:05;0.60;1.00
1429;DHT22;708;51.442;7.016;2022-11-20T01:06:34;0.70;1.00
1429;DHT22;708;51.442;7.016;2022-11-20T01:09:02;0.80;1.00
1429;DHT22;708;51.442;7.016;2022-11-20T01:11:31;0.90;1.00
1429;DHT22;708;51.442;7.016;2022-11-20T01:14:00;1.00;1.00
1429;DHT22;708;51.442;7.016;2022-11-20T01:16:29;1.10;1.00
1429;DHT22;708;51.442;7.016;2022-11-20T01:18:58;1.20;1.00
1429;DHT22;708;51.442;7.016;2022-11-20T01:21:29;1.30;1.00
1429;DHT22;708;51.442;7.016;2022-11-20T01:23:56;1.30;1.00
1429;DHT22;708;51.442;7.016;2022-11-20T01:26:25;1.30;1.00
1429;DHT22;708;51.442;7.016;2022-11-20T01:28:53;1.20;1.00
1429;DHT22;708;51.442;7.016;2022-11-20T01:31:22;1.20;1.00
1429;DHT22;708;51.442;7.016;2022-11-20T01:33:51;1.20;1.00
1429;DHT22;708;51.442;7.016;2022-11-20T01:36:19;1.20;1.00
1429;DHT22;708;51.442;7.016;2022-11-20T01:38:51;1.10;1.00
1429;DHT22;708;51.442;7.016;2022-11-20T01:41:18;1.20;1.00
1429;DHT22;708;51.442;7.016;2022-11-20T01:43:58;1.20;1.00
1429;DHT22;708;51.442;7.016;2022-11-20T01:46:25;1.30;1.00
1429;DHT22;708;51.442;7.016;2022-11-20T01:48:55;1.20;1.00
1429;DHT22;708;51.442;7.016;2022-11-20T01:51:27;1.30;1.00
1429;DHT22;708;51.442;7.016;2022-11-20T01:54:00;1.40;1.00
1429;DHT22;708;51.442;7.016;2022-11-20T01:56:28;1.40;1.00
1429;DHT22;708;51.442;7.016;2022-11-20T01:59:00;1.60;1.00
1429;DHT22;708;51.442;7.016;2022-11-20T02:01:27;1.60;1.00
1429;DHT22;708;51.442;7.016;2022-11-20T02:03:54;1.70;1.00
1429;DHT22;708;51.442;7.016;2022-11-20T02:06:24;1.80;1.00
1429;DHT22;708;51.442;7.016;2022-11-20T02:08:52;1.80;1.00
1429;DHT22;708;51.442;7.016;2022-11-20T02:11:21;1.90;1.00
1429;DHT22;708;51.442;7.016;2022-11-20T02:13:48;1.90;1.00
1429;DHT22;708;51.442;7.016;2022-11-20T02:16:21;1.90;1.00
1429;DHT22;708;51.442;7.016;2022-11-20T02:18:50;2.00;1.00
1429;DHT22;708;51.442;7.016;2022-11-20T02:21:27;2.00;1.00
1429;DHT22;708;51.442;7.016;2022-11-20T02:24:03;2.10;1.00
1429;DHT22;708;51.442;7.016;2022-11-20T02:26:33;2.10;1.00
1429;DHT22;708;51.442;7.016;2022-11-20T02:29:02;2.20;1.00
1429;DHT22;708;51.442;7.016;2022-11-20T02:31:33;2.20;1.00
1429;DHT22;708;51.442;7.016;2022-11-20T02:34:00;2.20;1.00
1429;DHT22;708;51.442;7.016;2022-11-20T02:36:27;2.30;1.00
1429;DHT22;708;51.442;7.016;2022-11-20T02:38:55;2.40;1.00
1429;DHT22;708;51.442;7.016;2022-11-20T02:41:30;2.50;1.00
1429;DHT22;708;51.442;7.016;2022-11-20T02:43:57;2.50;1.00
1429;DHT22;708;51.442;7.016;2022-11-20T02:46:24;2.50;1.00
1429;DHT22;708;51.442;7.016;2022-11-20T02:48:51;2.60;1.00
1429;DHT22;708;51.442;7.016;2022-11-20T02:51:17;2.70;1.00
1429;DHT22;708;51.442;7.016;2022-11-20T02:53:44;2.70;1.00
1429;DHT22;708;51.442;7.016;2022-11-20T02:56:12;2.70;1.00
1429;DHT22;708;51.442;7.016;2022-11-20T02:58:40;2.70;1.00
1429;DHT22;708;51.442;7.016;2022-11-20T03:01:06;2.70;1.00
1429;DHT22;708;51.442;7.016;2022-11-20T03:03:33;2.70;1.00
1429;DHT22;708;51.442;7.016;2022-11-20T03:06:00;2.80;1.00
1429;DHT22;708;51.442;7.016;2022-11-20T03:08:27;2.80;1.00
1429;DHT22;708;51.442;7.016;2022-11-20T03:10:54;2.90;1.00
1429;DHT22;708;51.442;7.016;2022-11-20T03:13:21;3.00;1.00
1429;DHT22;708;51.442;7.016;2022-11-20T03:15:49;3.10;99.90
1429;DHT22;708;51.442;7.016;2022-11-20T03:18:16;3.10;99.90
1429;DHT22;708;51.442;7.016;2022-11-20T03:20:42;3.20;99.90
1429;DHT22;708;51.442;7.016;2022-11-20T03:23:09;3.20;99.90
1429;DHT22;708;51.442;7.016;2022-11-20T03:25:36;3.30;99.90
1429;DHT22;708;51.442;7.016;2022-11-20T03:28:03;3.30;99.90
1429;DHT22;708;51.442;7.016;2022-11-20T03:30:29;3.40;99.90
1429;DHT22;708;51.442;7.016;2022-11-20T03:32:57;3.40;99.90
1429;DHT22;708;51.442;7.016;2022-11-20T03:35:24;3.50;99.90
1429;DHT22;708;51.442;7.016;2022-11-20T03:37:51;3.50;99.90
1429;DHT22;708;51.442;7.016;2022-11-20T03:40:18;3.60;99.90
1429;DHT22;708;51.442;7.016;2022-11-20T03:42:44;3.70;99.90
1429;DHT22;708;51.442;7.016;2022-11-20T03:45:11;3.80;1.00
1429;DHT22;708;51.442;7.016;2022-11-20T03:47:38;3.80;1.00
1429;DHT22;708;51.442;7.016;2022-11-20T03:50:07;3.80;1.00
1429;DHT22;708;51.442;7.016;2022-11-20T03:52:34;3.80;99.90
1429;DHT22;708;51.442;7.016;2022-11-20T03:55:01;3.80;99.90
1429;DHT22;708;51.442;7.016;2022-11-20T03:57:28;3.80;99.90
1429;DHT22;708;51.442;7.016;2022-11-20T03:59:54;3.80;99.90
1429;DHT22;708;51.442;7.016;2022-11-20T04:02:21;3.80;99.90
1429;DHT22;708;51.442;7.016;2022-11-20T04:04:48;3.90;99.90
1429;DHT22;708;51.442;7.016;2022-11-20T04:07:16;3.90;1.00
1429;DHT22;708;51.442;7.016;2022-11-20T04:09:43;3.90;1.00
1429;DHT22;708;51.442;7.016;2022-11-20T04:12:09;3.90;1.00
1429;DHT22;708;51.442;7.016;2022-11-20T04:14:36;3.90;99.90
1429;DHT22;708;51.442;7.016;2022-11-20T04:17:03;3.90;99.90
1429;DHT22;708;51.442;7.016;2022-11-20T04:19:30;3.90;99.90
1429;DHT22;708;51.442;7.016;2022-11-20T04:21:57;3.90;1.00
1429;DHT22;708;51.442;7.016;2022-11-20T04:24:26;4.00;99.90
1429;DHT22;708;51.442;7.016;2022-11-20T04:26:53;4.00;99.90
1429;DHT22;708;51.442;7.016;2022-11-20T04:29:19;4.00;1.00
1429;DHT22;708;51.442;7.016;2022-11-20T04:31:46;3.90;1.00
1429;DHT22;708;51.442;7.016;2022-11-20T04:34:13;3.90;1.00
1429;DHT22;708;51.442;7.016;2022-11-20T04:36:40;3.90;99.90
1429;DHT22;708;51.442;7.016;2022-11-20T04:39:12;3.90;99.90
1429;DHT22;708;51.442;7.016;2022-11-20T04:41:41;3.90;99.90
1429;DHT22;708;51.442;7.016;2022-11-20T04:44:08;3.90;99.90
1429;DHT22;708;51.442;7.016;2022-11-20T04:46:37;3.80;1.00
1429;DHT22;708;51.442;7.016;2022-11-20T04:49:04;3.80;1.00
1429;DHT22;708;51.442;7.016;2022-11-20T04:51:31;3.90;94.80
1429;DHT22;708;51.442;7.016;2022-11-20T04:53:58;3.70;1.00
1429;DHT22;708;51.442;7.016;2022-11-20T04:56:24;3.70;24.20
1429;DHT22;708;51.442;7.016;2022-11-20T04:58:52;3.60;99.90
1429;DHT22;708;51.442;7.016;2022-11-20T05:01:20;3.60;99.90
1429;DHT22;708;51.442;7.016;2022-11-20T05:03:48;3.50;1.00
1429;DHT22;708;51.442;7.016;2022-11-20T05:06:17;3.50;99.90
1429;DHT22;708;51.442;7.016;2022-11-20T05:08:44;3.50;1.00
1429;DHT22;708;51.442;7.016;2022-11-20T05:11:12;3.60;1.00
1429;DHT22;708;51.442;7.016;2022-11-20T05:13:40;3.50;1.00
1429;DHT22;708;51.442;7.016;2022-11-20T05:16:09;3.60;99.90
1429;DHT22;708;51.442;7.016;2022-11-20T05:18:37;3.60;1.00
1429;DHT22;708;51.442;7.016;2022-11-20T05:21:05;3.70;99.70
1429;DHT22;708;51.442;7.016;2022-11-20T05:23:32;3.90;24.90
1429;DHT22;708;51.442;7.016;2022-11-20T05:26:00;3.80;12.20
1429;DHT22;708;51.442;7.016;2022-11-20T05:28:28;3.80;91.40
1429;DHT22;708;51.442;7.016;2022-11-20T05:30:55;3.90;99.90
1429;DHT22;708;51.442;7.016;2022-11-20T05:33:23;4.00;99.90
1429;DHT22;708;51.442;7.016;2022-11-20T05:35:50;4.00;1.00
1429;DHT22;708;51.442;7.016;2022-11-20T05:38:17;4.10;99.90
1429;DHT22;708;51.442;7.016;2022-11-20T05:40:43;4.20;99.90
1429;DHT22;708;51.442;7.016;2022-11-20T05:43:10;4.20;1.00
1429;DHT22;708;51.442;7.016;2022-11-20T05:45:37;4.20;1.00
1429;DHT22;708;51.442;7.016;2022-11-20T05:48:04;4.30;99.90
1429;DHT22;708;51.442;7.016;2022-11-20T05:50:32;4.30;1.00
1429;DHT22;708;51.442;7.016;2022-11-20T05:52:59;4.30;1.00
1429;DHT22;708;51.442;7.016;2022-11-20T05:55:26;4.40;99.90
1429;DHT22;708;51.442;7.016;2022-11-20T05:57:53;4.40;99.90
1429;DHT22;708;51.442;7.016;2022-11-20T06:00:21;4.40;99.90
1429;DHT22;708;51.442;7.016;2022-11-20T06:02:48;4.50;1.00
1429;DHT22;708;51.442;7.016;2022-11-20T06:05:15;4.50;1.00
1429;DHT22;708;51.442;7.016;2022-11-20T06:07:43;4.60;1.00
1429;DHT22;708;51.442;7.016;2022-11-20T06:10:10;4.50;1.00
1429;DHT22;708;51.442;7.016;2022-11-20T06:12:37;4.50;1.00
1429;DHT22;708;51.442;7.016;2022-11-20T06:15:05;4.50;1.00
1429;DHT22;708;51.442;7.016;2022-11-20T06:17:32;4.40;1.00
1429;DHT22;708;51.442;7.016;2022-11-20T06:19:59;4.40;99.90
1429;DHT22;708;51.442;7.016;2022-11-20T06:22:27;4.40;99.90
1429;DHT22;708;51.442;7.016;2022-11-20T06:24:55;4.40;1.00
1429;DHT22;708;51.442;7.016;2022-11-20T06:27:21;4.50;99.90
1429;DHT22;708;51.442;7.016;2022-11-20T06:29:48;4.50;99.90
1429;DHT22;708;51.442;7.016;2022-11-20T06:32:15;4.50;99.90
1429;DHT22;708;51.442;7.016;2022-11-20T06:34:42;4.50;46.70
1429;DHT22;708;51.442;7.016;2022-11-20T06:37:09;4.50;68.40
1429;DHT22;708;51.442;7.016;2022-11-20T06:39:36;4.60;39.10
1429;DHT22;708;51.442;7.016;2022-11-20T06:42:04;4.60;27.10
1429;DHT22;708;51.442;7.016;2022-11-20T06:44:31;4.60;1.00
1429;DHT22;708;51.442;7.016;2022-11-20T06:46:58;4.50;1.00
1429;DHT22;708;51.442;7.016;2022-11-20T06:49:25;4.50;1.00
1429;DHT22;708;51.442;7.016;2022-11-20T06:51:52;4.40;1.00
1429;DHT22;708;51.442;7.016;2022-11-20T06:54:19;4.40;1.00
1429;DHT22;708;51.442;7.016;2022-11-20T06:56:51;4.30;1.00
1429;DHT22;708;51.442;7.016;2022-11-20T06:59:19;4.20;93.20
1429;DHT22;708;51.442;7.016;2022-11-20T07:01:46;4.20;99.90
1429;DHT22;708;51.442;7.016;2022-11-20T07:04:13;4.20;99.90
1429;DHT22;708;51.442;7.016;2022-11-20T07:06:40;4.20;1.00
1429;DHT22;708;51.442;7.016;2022-11-20T07:09:07;4.10;63.00
1429;DHT22;708;51.442;7.016;2022-11-20T07:11:33;4.00;99.90
1429;DHT22;708;51.442;7.016;2022-11-20T07:14:00;4.00;60.10
1429;DHT22;708;51.442;7.016;2022-11-20T07:16:29;4.00;99.90
1429;DHT22;708;51.442;7.016;2022-11-20T07:18:55;3.90;1.00
1429;DHT22;708;51.442;7.016;2022-11-20T07:21:22;3.90;1.00
1429;DHT22;708;51.442;7.016;2022-11-20T07:23:49;3.90;99.90
1429;DHT22;708;51.442;7.016;2022-11-20T07:26:16;3.90;99.90
1429;DHT22;708;51.442;7.016;2022-11-20T07:28:44;3.90;1.00
1429;DHT22;708;51.442;7.016;2022-11-20T07:31:11;4.00;1.00
1429;DHT22;708;51.442;7.016;2022-11-20T07:33:39;4.00;10.10
1429;DHT22;708;51.442;7.016;2022-11-20T07:36:07;4.10;91.90
1429;DHT22;708;51.442;7.016;2022-11-20T07:38:34;4.20;95.30
1429;DHT22;708;51.442;7.016;2022-11-20T07:41:00;4.30;48.20
1429;DHT22;708;51.442;7.016;2022-11-20T07:43:30;4.30;17.10
1429;DHT22;708;51.442;7.016;2022-11-20T07:45:58;4.40;21.60
1429;DHT22;708;51.442;7.016;2022-11-20T07:48:28;4.40;25.60
1429;DHT22;708;51.442;7.016;2022-11-20T07:50:56;4.50;8.30
1429;DHT22;708;51.442;7.016;2022-11-20T07:53:29;4.60;1.00
1429;DHT22;708;51.442;7.016;2022-11-20T07:55:59;4.70;1.00
1429;DHT22;708;51.442;7.016;2022-11-20T07:58:26;4.70;99.90
1429;DHT22;708;51.442;7.016;2022-11-20T08:01:04;4.90;1.00
1429;DHT22;708;51.442;7.016;2022-11-20T08:03:38;5.10;1.00
1429;DHT22;708;51.442;7.016;2022-11-20T08:06:09;5.30;99.90
1429;DHT22;708;51.442;7.016;2022-11-20T08:08:36;5.40;1.00
1429;DHT22;708;51.442;7.016;2022-11-20T08:11:07;5.50;99.90
1429;DHT22;708;51.442;7.016;2022-11-20T08:13:51;5.70;99.90
1429;DHT22;708;51.442;7.016;2022-11-20T08:16:36;6.50;79.40
1429;DHT22;708;51.442;7.016;2022-11-20T08:19:08;7.70;1.00
1429;DHT22;708;51.442;7.016;2022-11-20T08:21:37;8.70;1.00
1429;DHT22;708;51.442;7.016;2022-11-20T08:24:05;9.80;99.90
1429;DHT22;708;51.442;7.016;2022-11-20T08:26:32;10.40;99.90
1429;DHT22;708;51.442;7.016;2022-11-20T08:28:59;11.00;99.90
1429;DHT22;708;51.442;7.016;2022-11-20T08:31:29;11.50;99.90
1429;DHT22;708;51.442;7.016;2022-11-20T08:33:56;11.20;99.90
1429;DHT22;708;51.442;7.016;2022-11-20T08:36:23;10.90;99.90
1429;DHT22;708;51.442;7.016;2022-11-20T08:38:53;10.30;99.90
1429;DHT22;708;51.442;7.016;2022-11-20T08:41:21;9.80;99.90
1429;DHT22;708;51.442;7.016;2022-11-20T08:43:53;9.20;99.90
1429;DHT22;708;51.442;7.016;2022-11-20T08:46:20;8.70;99.90
1429;DHT22;708;51.442;7.016;2022-11-20T08:48:48;8.30;99.90
1429;DHT22;708;51.442;7.016;2022-11-20T08:51:15;8.00;99.90
1429;DHT22;708;51.442;7.016;2022-11-20T08:53:45;7.80;99.90
1429;DHT22;708;51.442;7.016;2022-11-20T08:56:15;7.40;99.90
1429;DHT22;708;51.442;7.016;2022-11-20T08:58:42;7.30;1.00
1429;DHT22;708;51.442;7.016;2022-11-20T09:01:10;7.20;1.00
1429;DHT22;708;51.442;7.016;2022-11-20T09:03:37;7.20;1.00
1429;DHT22;708;51.442;7.016;2022-11-20T09:06:06;7.20;1.00
1429;DHT22;708;51.442;7.016;2022-11-20T09:08:33;7.20;1.00
1429;DHT22;708;51.442;7.016;2022-11-20T09:11:02;7.20;1.00
1429;DHT22;708;51.442;7.016;2022-11-20T09:13:31;7.30;1.00
1429;DHT22;708;51.442;7.016;2022-11-20T09:16:02;7.50;1.00
1429;DHT22;708;51.442;7.016;2022-11-20T09:18:29;7.50;1.00
1429;DHT22;708;51.442;7.016;2022-11-20T09:20:58;7.70;1.00
1429;DHT22;708;51.442;7.016;2022-11-20T09:23:25;7.80;99.90
1429;DHT22;708;51.442;7.016;2022-11-20T09:25:52;8.00;99.90
1429;DHT22;708;51.442;7.016;2022-11-20T09:28:21;8.10;99.90
1429;DHT22;708;51.442;7.016;2022-11-20T09:30:49;8.10;99.90
1429;DHT22;708;51.442;7.016;2022-11-20T09:33:16;8.10;99.90
1429;DHT22;708;51.442;7.016;2022-11-20T09:36:16;8.10;99.90
1429;DHT22;708;51.442;7.016;2022-11-20T09:38:59;8.20;99.90
1429;DHT22;708;51.442;7.016;2022-11-20T09:41:41;8.40;99.90
1429;DHT22;708;51.442;7.016;2022-11-20T09:44:24;8.30;99.90
1429;DHT22;708;51.442;7.016;2022-11-20T09:47:03;8.20;99.90
1429;DHT22;708;51.442;7.016;2022-11-20T09:49:40;8.30;99.90
1429;DHT22;708;51.442;7.016;2022-11-20T09:52:20;8.50;99.90
1429;DHT22;708;51.442;7.016;2022-11-20T09:54:50;8.60;99.90
1429;DHT22;708;51.442;7.016;2022-11-20T09:57:20;8.70;99.90
1429;DHT22;708;51.442;7.016;2022-11-20T09:59:51;8.70;99.90
1429;DHT22;708;51.442;7.016;2022-11-20T10:02:27;8.80;99.90
1429;DHT22;708;51.442;7.016;2022-11-20T10:05:04;8.80;99.90
1429;DHT22;708;51.442;7.016;2022-11-20T10:07:38;8.90;99.90
1429;DHT22;708;51.442;7.016;2022-11-20T10:10:15;8.90;99.90
1429;DHT22;708;51.442;7.016;2022-11-20T10:12:54;8.90;99.90
1429;DHT22;708;51.442;7.016;2022-11-20T10:15:31;8.90;99.90
1429;DHT22;708;51.442;7.016;2022-11-20T10:18:23;8.80;99.90
1429;DHT22;708;51.442;7.016;2022-11-20T10:20:58;8.70;99.90
1429;DHT22;708;51.442;7.016;2022-11-20T10:23:35;8.40;99.90
1429;DHT22;708;51.442;7.016;2022-11-20T10:26:17;8.40;99.90
1429;DHT22;708;51.442;7.016;2022-11-20T10:28:56;8.30;99.90
1429;DHT22;708;51.442;7.016;2022-11-20T10:31:30;8.20;99.90
1429;DHT22;708;51.442;7.016;2022-11-20T10:34:03;8.20;99.90
1429;DHT22;708;51.442;7.016;2022-11-20T10:36:35;8.10;99.90
1429;DHT22;708;51.442;7.016;2022-11-20T10:39:16;8.10;99.90
1429;DHT22;708;51.442;7.016;2022-11-20T10:41:49;8.00;99.90
1429;DHT22;708;51.442;7.016;2022-11-20T10:44:20;8.10;99.90
1429;DHT22;708;51.442;7.016;2022-11-20T10:47:01;8.00;99.90
1429;DHT22;708;51.442;7.016;2022-11-20T10:49:30;8.10;99.90
1429;DHT22;708;51.442;7.016;2022-11-20T10:52:05;8.30;99.90
1429;DHT22;708;51.442;7.016;2022-11-20T10:54:41;8.40;99.90
1429;DHT22;708;51.442;7.016;2022-11-20T10:57:20;8.50;99.90
1429;DHT22;708;51.442;7.016;2022-11-20T11:00:05;8.60;99.90
1429;DHT22;708;51.442;7.016;2022-11-20T11:02:35;8.70;99.90
1429;DHT22;708;51.442;7.016;2022-11-20T11:05:16;8.80;99.90
1429;DHT22;708;51.442;7.016;2022-11-20T11:07:45;8.90;99.90
1429;DHT22;708;51.442;7.016;2022-11-20T11:10:16;8.90;99.90
1429;DHT22;708;51.442;7.016;2022-11-20T11:12:45;8.90;99.90
1429;DHT22;708;51.442;7.016;2022-11-20T11:15:24;9.00;99.90
1429;DHT22;708;51.442;7.016;2022-11-20T11:17:52;9.10;99.90
1429;DHT22;708;51.442;7.016;2022-11-20T11:20:21;9.20;99.90
1429;DHT22;708;51.442;7.016;2022-11-20T11:22:50;9.10;99.90
1429;DHT22;708;51.442;7.016;2022-11-20T11:25:26;9.10;99.90
1429;DHT22;708;51.442;7.016;2022-11-20T11:27:55;9.10;99.90
1429;DHT22;708;51.442;7.016;2022-11-20T11:30:23;9.10;99.90
1429;DHT22;708;51.442;7.016;2022-11-20T11:32:50;9.00;99.90
1429;DHT22;708;51.442;7.016;2022-11-20T11:35:28;9.00;99.90
1429;DHT22;708;51.442;7.016;2022-11-20T11:38:04;8.90;99.90
1429;DHT22;708;51.442;7.016;2022-11-20T11:40:32;9.00;99.90
1429;DHT22;708;51.442;7.016;2022-11-20T11:43:04;9.10;99.90
1429;DHT22;708;51.442;7.016;2022-11-20T11:45:53;9.00;99.90
1429;DHT22;708;51.442;7.016;2022-11-20T11:48:19;9.00;99.90
1429;DHT22;708;51.442;7.016;2022-11-20T11:50:50;9.10;99.90
1429;DHT22;708;51.442;7.016;2022-11-20T11:53:19;9.10;99.90
1429;DHT22;708;51.442;7.016;2022-11-20T11:55:49;9.20;99.90
1429;DHT22;708;51.442;7.016;2022-11-20T11:58:33;9.20;99.90
1429;DHT22;708;51.442;7.016;2022-11-20T12:01:06;9.20;99.90
1429;DHT22;708;51.442;7.016;2022-11-20T12:03:36;9.00;99.90
1429;DHT22;708;51.442;7.016;2022-11-20T12:06:10;8.80;99.90
1429;DHT22;708;51.442;7.016;2022-11-20T12:08:42;8.70;99.90
1429;DHT22;708;51.442;7.016;2022-11-20T12:11:14;8.70;99.90
1429;DHT22;708;51.442;7.016;2022-11-20T12:13:48;8.70;99.90
1429;DHT22;708;51.442;7.016;2022-11-20T12:16:18;8.60;99.90
1429;DHT22;708;51.442;7.016;2022-11-20T12:18:48;8.50;99.90
1429;DHT22;708;51.442;7.016;2022-11-20T12:21:23;8.50;99.90
1429;DHT22;708;51.442;7.016;2022-11-20T12:24:11;8.40;99.90
1429;DHT22;708;51.442;7.016;2022-11-20T12:26:49;8.10;99.90
1429;DHT22;708;51.442;7.016;2022-11-20T12:29:27;8.00;99.90
1429;DHT22;708;51.442;7.016;2022-11-20T12:32:16;7.90;99.90
1429;DHT22;708;51.442;7.016;2022-11-20T12:34:56;7.90;99.90
1429;DHT22;708;51.442;7.016;2022-11-20T12:37:37;7.90;99.90
1429;DHT22;708;51.442;7.016;2022-11-20T12:40:24;7.90;99.90
1429;DHT22;708;51.442;7.016;2022-11-20T12:43:01;7.90;99.90
1429;DHT22;708;51.442;7.016;2022-11-20T12:46:03;7.90;99.90
1429;DHT22;708;51.442;7.016;2022-11-20T12:48:42;8.00;99.90
1429;DHT22;708;51.442;7.016;2022-11-20T12:51:26;7.90;99.90
1429;DHT22;708;51.442;7.016;2022-11-20T12:54:24;7.80;99.90
1429;DHT22;708;51.442;7.016;2022-11-20T12:57:00;7.80;99.90
1429;DHT22;708;51.442;7.016;2022-11-20T12:59:47;7.90;99.90
1429;DHT22;708;51.442;7.016;2022-11-20T13:02:23;7.80;99.90
1429;DHT22;708;51.442;7.016;2022-11-20T13:05:06;7.90;99.90
1429;DHT22;708;51.442;7.016;2022-11-20T13:07:39;7.80;99.90
1429;DHT22;708;51.442;7.016;2022-11-20T13:10:16;7.70;99.90
1429;DHT22;708;51.442;7.016;2022-11-20T13:12:47;7.70;99.90
1429;DHT22;708;51.442;7.016;2022-11-20T13:15:28;7.70;99.90
1429;DHT22;708;51.442;7.016;2022-11-20T13:17:59;7.70;99.90
1429;DHT22;708;51.442;7.016;2022-11-20T13:20:27;7.70;99.90
1429;DHT22;708;51.442;7.016;2022-11-20T13:22:56;7.80;99.90
1429;DHT22;708;51.442;7.016;2022-11-20T13:25:25;7.90;99.90
1429;DHT22;708;51.442;7.016;2022-11-20T13:27:53;7.90;99.90
1429;DHT22;708;51.442;7.016;2022-11-20T13:30:21;7.90;99.90
1429;DHT22;708;51.442;7.016;2022-11-20T13:32:50;7.90;99.90
1429;DHT22;708;51.442;7.016;2022-11-20T13:35:25;7.90;99.90
1429;DHT22;708;51.442;7.016;2022-11-20T13:38:01;7.90;99.90
1429;DHT22;708;51.442;7.016;2022-11-20T13:40:30;7.90;99.90
1429;DHT22;708;51.442;7.016;2022-11-20T13:43:14;7.90;99.90
1429;DHT22;708;51.442;7.016;2022-11-20T13:45:42;7.90;99.90
1429;DHT22;708;51.442;7.016;2022-11-20T13:48:20;7.90;99.90
1429;DHT22;708;51.442;7.016;2022-11-20T13:50:56;7.80;1.00
1429;DHT22;708;51.442;7.016;2022-11-20T13:53:34;7.80;1.00
1429;DHT22;708;51.442;7.016;2022-11-20T13:56:11;7.80;1.00
1429;DHT22;708;51.442;7.016;2022-11-20T13:58:49;7.90;1.00
1429;DHT22;708;51.442;7.016;2022-11-20T14:01:21;7.90;1.00
1429;DHT22;708;51.442;7.016;2022-11-20T14:03:49;7.90;1.00
1429;DHT22;708;51.442;7.016;2022-11-20T14:06:24;7.80;37.00
1429;DHT22;708;51.442;7.016;2022-11-20T14:08:53;7.80;51.20
1429;DHT22;708;51.442;7.016;2022-11-20T14:11:23;7.80;99.90
1429;DHT22;708;51.442;7.016;2022-11-20T14:13:58;7.80;99.90
1429;DHT22;708;51.442;7.016;2022-11-20T14:16:27;7.70;99.90
1429;DHT22;708;51.442;7.016;2022-11-20T14:18:55;7.80;99.90
1429;DHT22;708;51.442;7.016;2022-11-20T14:21:23;7.60;99.90
1429;DHT22;708;51.442;7.016;2022-11-20T14:23:53;7.60;1.00
1429;DHT22;708;51.442;7.016;2022-11-20T14:26:26;7.60;1.00
1429;DHT22;708;51.442;7.016;2022-11-20T14:28:53;7.50;14.70
1429;DHT22;708;51.442;7.016;2022-11-20T14:31:23;7.50;1.00
1429;DHT22;708;51.442;7.016;2022-11-20T14:33:52;7.40;8.70
1429;DHT22;708;51.442;7.016;2022-11-20T14:36:21;7.30;99.90
1429;DHT22;708;51.442;7.016;2022-11-20T14:38:49;7.20;99.90
1429;DHT22;708;51.442;7.016;2022-11-20T14:41:18;7.20;99.90
1429;DHT22;708;51.442;7.016;2022-11-20T14:43:51;7.20;1.00
1429;DHT22;708;51.442;7.016;2022-11-20T14:46:22;7.10;31.10
1429;DHT22;708;51.442;7.016;2022-11-20T14:48:51;7.10;1.00
1429;DHT22;708;51.442;7.016;2022-11-20T14:51:29;7.10;1.00
1429;DHT22;708;51.442;7.016;2022-11-20T14:53:56;7.00;45.30
1429;DHT22;708;51.442;7.016;2022-11-20T14:56:34;7.00;1.00
1429;DHT22;708;51.442;7.016;2022-11-20T14:59:02;7.00;99.90
1429;DHT22;708;51.442;7.016;2022-11-20T15:01:30;6.90;32.20
1429;DHT22;708;51.442;7.016;2022-11-20T15:04:00;6.90;99.90
1429;DHT22;708;51.442;7.016;2022-11-20T15:06:28;6.80;1.00
1429;DHT22;708;51.442;7.016;2022-11-20T15:08:57;6.70;99.90
1429;DHT22;708;51.442;7.016;2022-11-20T15:11:28;6.70;1.00
1429;DHT22;708;51.442;7.016;2022-11-20T15:13:56;6.60;45.50
1429;DHT22;708;51.442;7.016;2022-11-20T15:16:25;6.50;99.90
1429;DHT22;708;51.442;7.016;2022-11-20T15:18:53;6.40;99.90
1429;DHT22;708;51.442;7.016;2022-11-20T15:21:20;6.40;99.90
1429;DHT22;708;51.442;7.016;2022-11-20T15:23:47;6.40;99.90
1429;DHT22;708;51.442;7.016;2022-11-20T15:26:17;6.40;1.00
1429;DHT22;708;51.442;7.016;2022-11-20T15:28:46;6.30;1.00
1429;DHT22;708;51.442;7.016;2022-11-20T15:31:17;6.30;1.00
1429;DHT22;708;51.442;7.016;2022-11-20T15:33:46;6.30;1.00
1429;DHT22;708;51.442;7.016;2022-11-20T15:36:13;6.30;1.00
1429;DHT22;708;51.442;7.016;2022-11-20T15:38:44;6.30;1.00
1429;DHT22;708;51.442;7.016;2022-11-20T15:41:10;6.20;1.00
1429;DHT22;708;51.442;7.016;2022-11-20T15:43:38;6.20;1.00
1429;DHT22;708;51.442;7.016;2022-11-20T15:46:08;6.20;1.00
1429;DHT22;708;51.442;7.016;2022-11-20T15:48:38;6.20;1.00
1429;DHT22;708;51.442;7.016;2022-11-20T15:51:17;6.20;1.00
1429;DHT22;708;51.442;7.016;2022-11-20T15:53:46;6.20;1.00
1429;DHT22;708;51.442;7.016;2022-11-20T15:56:14;6.20;1.00
1429;DHT22;708;51.442;7.016;2022-11-20T15:58:41;6.20;1.00
1429;DHT22;708;51.442;7.016;2022-11-20T16:01:10;6.20;1.00
1429;DHT22;708;51.442;7.016;2022-11-20T16:03:38;6.20;1.00
1429;DHT22;708;51.442;7.016;2022-11-20T16:06:05;6.20;1.00
1429;DHT22;708;51.442;7.016;2022-11-20T16:08:33;6.30;1.00
1429;DHT22;708;51.442;7.016;2022-11-20T16:11:00;6.20;1.00
1429;DHT22;708;51.442;7.016;2022-11-20T16:13:27;6.30;1.00
1429;DHT22;708;51.442;7.016;2022-11-20T16:16:19;6.20;1.00
1429;DHT22;708;51.442;7.016;2022-11-20T16:18:52;6.30;1.40
1429;DHT22;708;51.442;7.016;2022-11-20T16:21:27;6.30;2.80
1429;DHT22;708;51.442;7.016;2022-11-20T16:23:58;6.40;5.30
1429;DHT22;708;51.442;7.016;2022-11-20T16:26:25;6.50;8.80
1429;DHT22;708;51.442;7.016;2022-11-20T16:28:55;6.50;8.90
1429;DHT22;708;51.442;7.016;2022-11-20T16:31:22;6.50;10.20
1429;DHT22;708;51.442;7.016;2022-11-20T16:34:03;6.60;8.30
1429;DHT22;708;51.442;7.016;2022-11-20T16:36:45;6.50;10.00
1429;DHT22;708;51.442;7.016;2022-11-20T16:39:27;6.60;12.30
1429;DHT22;708;51.442;7.016;2022-11-20T16:42:29;6.70;17.30
1429;DHT22;708;51.442;7.016;2022-11-20T16:45:53;6.70;19.50
1429;DHT22;708;51.442;7.016;2022-11-20T16:48:36;6.80;22.40
1429;DHT22;708;51.442;7.016;2022-11-20T16:54:10;6.90;25.40
1429;DHT22;708;51.442;7.016;2022-11-20T16:56:38;7.00;29.40
1429;DHT22;708;51.442;7.016;2022-11-20T16:59:05;7.00;29.10
1429;DHT22;708;51.442;7.016;2022-11-20T17:01:32;7.00;32.90
1429;DHT22;708;51.442;7.016;2022-11-20T17:04:04;7.10;33.50
1429;DHT22;708;51.442;7.016;2022-11-20T17:06:38;7.10;31.00